createdAt,value
2023-03-29T00:01:01.332Z,18.3
2023-03-29T00:11:01.192Z,17.9
2023-03-29T00:16:01.079Z,17.0
2023-03-29T00:21:01.180Z,16.0
2023-03-29T00:26:01.056Z,15.9
2023-03-29T00:31:05.342Z,13.5
2023-03-29T00:36:01.115Z,12.9
2023-03-29T00:41:03.273Z,13.1
2023-03-29T00:46:01.091Z,12.4
2023-03-29T00:56:01.077Z,12.6
2023-03-29T01:01:01.123Z,13.2
2023-03-29T01:06:01.089Z,13.0
2023-03-29T01:11:01.306Z,12.3
2023-03-29T01:16:01.121Z,11.7
2023-03-29T01:21:01.216Z,11.5
2023-03-29T01:26:01.073Z,10.5
2023-03-29T01:31:01.151Z,9.6
2023-03-29T01:36:01.104Z,9.1
2023-03-29T01:46:01.074Z,7.8
2023-03-29T01:51:01.396Z,7.2
2023-03-29T01:56:01.120Z,7.7
2023-03-29T02:01:01.214Z,8.4
2023-03-29T02:06:01.113Z,8.1
2023-03-29T02:11:01.166Z,8.6
2023-03-29T02:16:01.205Z,8.1
2023-03-29T02:21:01.237Z,7.8
2023-03-29T02:31:01.274Z,7.2
2023-03-29T02:36:01.139Z,8.3
2023-03-29T02:41:01.247Z,9.6
2023-03-29T02:46:01.065Z,9.1
2023-03-29T02:51:01.776Z,9.4
2023-03-29T02:56:01.116Z,9.3
2023-03-29T03:01:01.269Z,7.9
2023-03-29T03:06:01.086Z,7.2
2023-03-29T03:11:01.248Z,7.5
2023-03-29T03:17:03.180Z,6.6
2023-03-29T03:22:01.153Z,7.4
2023-03-29T03:27:01.049Z,8.3
2023-03-29T03:32:01.075Z,8.8
2023-03-29T03:37:01.672Z,9.6
2023-03-29T03:42:01.056Z,10.0
2023-03-29T03:47:01.156Z,10.2
2023-03-29T03:52:01.489Z,9.8
2023-03-29T03:58:01.124Z,10.8
2023-03-29T04:03:01.139Z,10.4
2023-03-29T04:08:01.070Z,10.8
2023-03-29T04:13:01.052Z,11.0
2023-03-29T04:18:01.270Z,11.2
2023-03-29T04:23:01.113Z,10.4
2023-03-29T04:28:01.065Z,11.5
2023-03-29T04:33:01.126Z,12.6
2023-03-29T04:38:01.626Z,12.9
2023-03-29T04:43:01.056Z,13.0
2023-03-29T04:48:01.131Z,12.7
2023-03-29T04:53:01.207Z,11.4
2023-03-29T04:58:01.109Z,10.3
2023-03-29T05:03:01.100Z,10.1
2023-03-29T05:08:01.172Z,11.5
2023-03-29T05:13:01.108Z,11.9
2023-03-29T05:19:01.103Z,12.2
2023-03-29T05:24:01.063Z,12.8
2023-03-29T05:34:01.057Z,13.5
2023-03-29T05:39:01.306Z,13.7
2023-03-29T05:44:01.099Z,14.9
2023-03-29T05:49:01.159Z,14.7
2023-03-29T05:54:01.070Z,15.8
2023-03-29T05:59:01.115Z,14.0
2023-03-29T06:04:01.146Z,16.1
2023-03-29T06:09:01.051Z,17.1
2023-03-29T06:14:01.069Z,17.0
2023-03-29T06:19:01.086Z,17.5
2023-03-29T06:24:01.061Z,17.7
2023-03-29T06:29:01.197Z,16.1
2023-03-29T06:34:01.065Z,14.5
2023-03-29T06:39:01.100Z,15.6
2023-03-29T06:44:01.625Z,14.2
2023-03-29T06:49:01.145Z,14.5
2023-03-29T06:55:01.099Z,14.0
2023-03-29T07:00:01.473Z,14.4
2023-03-29T07:05:01.240Z,13.9
2023-03-29T07:10:01.061Z,14.1
2023-03-29T07:15:01.587Z,13.8
2023-03-29T07:20:01.166Z,14.4
2023-03-29T07:25:01.080Z,14.5
2023-03-29T07:31:01.252Z,14.4
2023-03-29T07:36:01.072Z,14.3
2023-03-29T07:41:01.420Z,15.1
2023-03-29T07:51:01.830Z,15.6
2023-03-29T07:56:01.073Z,15.0
2023-03-29T08:01:01.395Z,14.7
2023-03-29T08:06:01.692Z,13.7
2023-03-29T08:11:01.261Z,13.4
2023-03-29T08:16:01.058Z,12.1
2023-03-29T08:21:01.165Z,12.8
2023-03-29T08:26:01.060Z,13.2
2023-03-29T08:31:01.308Z,13.9
2023-03-29T08:36:01.113Z,15.2
2023-03-29T08:41:01.237Z,16.6
2023-03-29T08:46:13.789Z,16.3
2023-03-29T08:51:01.267Z,16.9
2023-03-29T08:56:05.604Z,17.1
2023-03-29T09:01:01.348Z,16.0
2023-03-29T09:06:04.307Z,14.3
2023-03-29T09:11:01.303Z,13.6
2023-03-29T09:16:01.138Z,12.9
2023-03-29T09:21:01.347Z,11.8
2023-03-29T09:26:01.109Z,11.0
2023-03-29T09:36:06.510Z,11.4
2023-03-29T09:41:09.165Z,11.5
2023-03-29T09:46:05.184Z,11.4
2023-03-29T09:51:04.291Z,10.9
2023-03-29T09:56:01.602Z,11.8
2023-03-29T10:01:05.472Z,11.2
2023-03-29T10:06:02.541Z,11.0
2023-03-29T10:12:01.166Z,11.2
2023-03-29T10:17:03.671Z,12.4
2023-03-29T10:22:01.057Z,12.1
2023-03-29T10:27:01.059Z,11.9
2023-03-29T10:32:12.132Z,11.2
2023-03-29T10:37:01.267Z,10.4
2023-03-29T10:42:01.067Z,8.9
2023-03-29T10:47:01.151Z,7.7
2023-03-29T10:52:01.110Z,7.4
2023-03-29T11:07:01.069Z,7.0
2023-03-29T11:12:12.526Z,7.3
2023-03-29T11:17:01.063Z,7.9
2023-03-29T11:22:12.509Z,7.6
2023-03-29T11:27:01.174Z,8.0
2023-03-29T11:32:01.121Z,8.9
2023-03-29T11:37:01.064Z,8.4
2023-03-29T11:42:01.092Z,8.2
2023-03-29T11:47:01.119Z,8.8
2023-03-29T11:52:01.114Z,9.2
2023-03-29T11:57:01.114Z,9.4
2023-03-29T12:02:01.128Z,10.2
2023-03-29T12:07:01.569Z,9.6
2023-03-29T12:12:01.186Z,9.4
2023-03-29T12:17:01.351Z,9.0
2023-03-29T12:22:01.082Z,8.9
2023-03-29T12:27:16.456Z,8.8
2023-03-29T12:32:01.066Z,9.6
2023-03-29T12:37:01.065Z,9.8
2023-03-29T12:42:01.065Z,9.9
2023-03-29T12:47:01.696Z,10.0
2023-03-29T12:57:01.123Z,9.8
2023-03-29T13:07:01.105Z,10.4
2023-03-29T13:12:01.093Z,10.5
2023-03-29T13:17:08.724Z,11.2
2023-03-29T13:22:01.076Z,11.8
2023-03-29T13:27:06.234Z,12.2
2023-03-29T13:32:01.072Z,12.0
2023-03-29T13:37:01.074Z,12.7
2023-03-29T13:43:21.737Z,14.2
2023-03-29T13:48:22.094Z,15.5
2023-03-29T13:53:13.136Z,17.6
2023-03-29T13:58:26.662Z,19.5
2023-03-29T14:03:01.177Z,20.6
2023-03-29T14:08:01.059Z,20.4
2023-03-29T14:13:02.496Z,20.6
2023-03-29T14:18:01.152Z,19.2
2023-03-29T14:23:06.090Z,18.1
2023-03-29T14:28:02.768Z,16.6
2023-03-29T14:33:06.179Z,16.2
2023-03-29T14:38:01.051Z,15.0
2023-03-29T14:43:06.112Z,13.8
2023-03-29T14:48:06.168Z,14.0
2023-03-29T14:58:01.104Z,13.8
2023-03-29T15:03:06.164Z,12.1
2023-03-29T15:08:06.122Z,12.6
2023-03-29T15:13:01.107Z,12.0
2023-03-29T15:18:06.223Z,12.3
2023-03-29T15:23:18.981Z,11.8
2023-03-29T15:28:01.884Z,13.2
2023-03-29T15:33:01.118Z,12.8
2023-03-29T15:38:01.110Z,12.4
2023-03-29T15:43:01.076Z,11.6
2023-03-29T15:48:01.090Z,11.2
2023-03-29T15:53:12.562Z,10.8
2023-03-29T15:58:06.187Z,11.3
2023-03-29T16:03:01.089Z,12.0
2023-03-29T16:08:01.057Z,12.4
2023-03-29T16:13:06.690Z,13.9
2023-03-29T16:18:01.274Z,14.3
2023-03-29T16:23:01.076Z,15.3
2023-03-29T16:28:01.094Z,15.0
2023-03-29T16:33:01.134Z,16.0
2023-03-29T16:48:01.328Z,18.6
2023-03-29T16:53:06.621Z,21.4
2023-03-29T16:58:01.044Z,23.2
2023-03-29T17:03:01.089Z,24.8
2023-03-29T17:08:01.092Z,26.9
2023-03-29T17:13:01.597Z,24.9
2023-03-29T17:18:01.081Z,24.0
2023-03-29T17:23:01.093Z,24.5
2023-03-29T17:28:02.014Z,23.8
2023-03-29T17:33:02.362Z,23.4
2023-03-29T17:38:01.226Z,24.1
2023-03-29T17:43:06.147Z,24.3
2023-03-29T17:48:07.374Z,25.5
2023-03-29T17:53:06.075Z,25.1
2023-03-29T17:58:06.062Z,25.8
2023-03-29T18:03:06.204Z,26.5
2023-03-29T18:08:02.066Z,26.9
2023-03-29T18:13:01.063Z,25.4
2023-03-29T18:18:01.072Z,28.1
2023-03-29T18:23:01.705Z,28.6
2023-03-29T18:28:01.098Z,28.2
2023-03-29T18:33:02.106Z,28.4
2023-03-29T18:38:01.491Z,28.5
2023-03-29T18:43:01.531Z,27.6
2023-03-29T18:48:01.253Z,29.0
2023-03-29T18:53:01.072Z,31.2
2023-03-29T18:58:01.069Z,33.3
2023-03-29T19:03:01.211Z,33.9
2023-03-29T19:08:01.071Z,34.2
2023-03-29T19:13:01.063Z,32.6
2023-03-29T19:18:01.127Z,30.6
2023-03-29T19:23:06.100Z,30.1
2023-03-29T19:28:01.063Z,29.6
2023-03-29T19:33:02.741Z,29.2
2023-03-29T19:38:06.070Z,30.3
2023-03-29T19:43:06.528Z,31.0
2023-03-29T19:48:03.059Z,29.9
2023-03-29T19:53:01.653Z,29.8
2023-03-29T19:58:01.057Z,30.7
2023-03-29T20:03:01.088Z,30.6
2023-03-29T20:08:06.047Z,29.9
2023-03-29T20:13:01.049Z,29.6
2023-03-29T20:18:01.071Z,29.1
2023-03-29T20:23:03.086Z,25.8
2023-03-29T20:28:02.331Z,24.0
2023-03-29T20:33:06.148Z,22.9
2023-03-29T20:38:01.103Z,21.3
2023-03-29T20:43:01.120Z,19.8
2023-03-29T20:48:01.383Z,20.1
2023-03-29T20:53:01.103Z,19.7
2023-03-29T20:58:06.093Z,18.9
2023-03-29T21:03:01.320Z,19.8
2023-03-29T21:08:02.192Z,20.1
2023-03-29T21:13:02.297Z,20.8
2023-03-29T21:18:01.113Z,21.2
2023-03-29T21:23:06.113Z,21.7
2023-03-29T21:28:01.669Z,21.8
2023-03-29T21:33:01.110Z,22.0
2023-03-29T21:38:06.154Z,21.0
2023-03-29T21:43:02.135Z,20.3
2023-03-29T21:48:01.078Z,20.0
2023-03-29T21:53:01.065Z,19.4
2023-03-29T22:03:01.093Z,20.0
2023-03-29T22:08:01.884Z,20.4
2023-03-29T22:13:01.070Z,21.4
2023-03-29T22:18:01.092Z,22.6
2023-03-29T22:23:01.170Z,23.2
2023-03-29T22:28:01.051Z,22.7
2023-03-29T22:33:02.977Z,23.2
2023-03-29T22:38:01.603Z,21.7
2023-03-29T22:43:06.041Z,21.0
2023-03-29T22:48:01.076Z,20.9
2023-03-29T22:53:01.128Z,21.4
2023-03-29T22:58:06.081Z,22.2
2023-03-29T23:03:01.846Z,23.0
2023-03-29T23:08:01.228Z,22.6
2023-03-29T23:13:01.063Z,23.0
2023-03-29T23:23:01.246Z,21.5
2023-03-29T23:28:01.250Z,22.0
2023-03-29T23:33:01.102Z,21.5
2023-03-29T23:38:01.961Z,21.0
2023-03-29T23:43:06.118Z,20.0
2023-03-29T23:48:06.104Z,19.9
2023-03-29T23:53:06.067Z,19.6
2023-03-29T23:58:01.060Z,19.7
